Latest Coastal Weather Observations for Derby

IDW60701

Issued at 12:13 am WST Monday 29 May 2017 (issued every 10 minutes, with the page automatically refreshed every 10 minutes)

About coastal observations | Map of coastal stations | Coastal observations for WA | Marine services | Other Formats
Station Details ID: 003032 Name: DERBY AERO Lat: -17.37 Lon: 123.66 Height: 6.2 m
Data from the previous 72 hours. | See also: Recent months at Derby
Date/Time
WST
Temp
°C
Wind Pressure Rain since
9am
mm
Weather Cloud Vis
km
Sea
Height
m
Swell
Dir  Spd
kts
Gust
kts
hPa Trend Height
m
Period
s
Dir
29/12:00am 20.1 CALM 0 4 1013.7 - 0.0 - - 10 - - - -
 
Date/Time
WST
Temp
°C
Wind Pressure Rain since
9am
mm
Weather Cloud Vis
km
Sea
Height
m
Swell
Dir  Spd
kts
Gust
kts
hPa Trend Height
m
Period
s
Dir
28/11:30pm 20.3 CALM 0 0 1013.7 - 0.0 - - 10 - - - -
28/11:00pm 20.9 CALM 0 0 1014.0 - 0.0 - - 10 - - - -
28/10:30pm 21.0 CALM 0 0 1014.1 - 0.0 - - 10 - - - -
28/10:00pm 21.3 CALM 0 0 1014.2 - 0.0 - - 10 - - - -
28/09:30pm 22.5 S 2 3 1014.1 - 0.0 - - 10 - - - -
28/09:00pm 22.2 S 2 4 1014.2 - 0.0 - - 10 - - - -
28/08:30pm 23.2 CALM 0 0 1014.0 - 0.0 - - 10 - - - -
28/08:00pm 23.4 CALM 0 0 1013.9 - 0.0 - - 10 - - - -
28/07:30pm 24.1 CALM 0 0 1013.7 - 0.0 - - 10 - - - -
28/07:00pm 24.9 CALM 0 2 1013.3 - 0.0 - - 10 - - - -
28/06:30pm 26.6 W 3 4 1013.0 - 0.0 - - 10 - - - -
28/06:00pm 26.8 WNW 1 4 1012.8 - 0.0 - Mostly cloudy 10 - - - -
28/05:30pm 27.2 WNW 5 7 1012.3 - 0.0 - - 10 - - - -
28/05:00pm 28.6 WNW 6 8 1011.9 - 0.0 - - 10 - - - -
28/04:30pm 30.2 WNW 7 9 1011.7 - 0.0 - - 10 - - - -
28/04:00pm 31.5 WNW 7 9 1011.6 - 0.0 - - 10 - - - -
28/03:30pm 31.8 WNW 9 10 1011.5 - 0.0 - - 10 - - - -
28/03:00pm 32.2 WNW 8 11 1011.5 - 0.0 - - 10 - - - -
28/02:30pm 32.2 NW 9 12 1011.4 - 0.0 - - 10 - - - -
28/02:00pm 32.1 NW 11 13 1011.5 - 0.0 - - 10 - - - -
28/01:30pm 32.8 NW 12 15 1011.5 - 0.0 - - 10 - - - -
28/01:00pm 32.7 N 10 15 1011.8 - 0.0 - - 10 - - - -
28/12:30pm 32.0 N 7 10 1012.1 - 0.0 - - 10 - - - -
28/12:00pm 32.3 N 9 12 1012.7 - 0.0 - - 10 - - - -
28/11:30am 32.1 NE 6 9 1013.2 - 0.0 - - 10 - - - -
28/11:00am 31.4 NNE 7 10 1013.5 - 0.0 - - 10 - - - -
28/10:30am 30.4 NE 7 10 1014.0 - 0.0 - - 10 - - - -
28/10:00am 29.4 NNE 7 9 1014.3 - 0.0 - - 10 - - - -
28/09:30am 28.4 NE 5 7 1014.6 - 0.0 - - 10 - - - -
28/09:00am 26.9 NNE 5 7 1014.6 - 0.0 - - 10 - - - -
28/08:30am 25.1 NE 6 9 1014.3 - 0.0 - - 10 - - - -
28/08:00am 23.5 ENE 6 9 1014.1 - 0.0 - - 10 - - - -
28/07:30am 20.8 ENE 1 4 1013.9 - 0.0 - - 10 - - - -
28/07:00am 18.9 SSE 4 5 1013.6 - 0.0 - - 10 - - - -
28/06:30am 17.4 ESE 4 5 1013.3 - 0.0 - - 10 - - - -
28/06:00am 16.8 SE 4 4 1012.9 - 0.0 - - 10 - - - -
28/05:30am 17.0 SSE 4 5 1012.7 - 0.0 - - 10 - - - -
28/05:00am 17.7 SSE 4 5 1012.4 - 0.0 - - 10 - - - -
28/04:30am 18.4 SE 5 5 1012.3 - 0.0 - - 10 - - - -
28/04:00am 19.1 SSE 6 7 1012.3 - 0.0 - - 10 - - - -
28/03:30am 19.2 SE 6 8 1012.4 - 0.0 - - 10 - - - -
28/03:00am 19.6 SSE 6 7 1012.4 - 0.0 - - 10 - - - -
28/02:30am 19.8 SSE 6 7 1012.5 - 0.0 - - 10 - - - -
28/02:00am 20.3 SSE 5 6 1012.7 - 0.0 - - 10 - - - -
28/01:30am 20.9 S 7 8 1013.0 - 0.0 - - 10 - - - -
28/01:00am 21.2 S 6 7 1013.1 - 0.0 - - 10 - - - -
28/12:30am 21.5 S 5 5 1013.1 - 0.0 - Partly cloudy 10 - - - -
28/12:00am 21.3 S 5 5 1013.0 - 0.0 - - 10 - - - -
 
Date/Time
WST
Temp
°C
Wind Pressure Rain since
9am
mm
Weather Cloud Vis
km
Sea
Height
m
Swell
Dir  Spd
kts
Gust
kts
hPa Trend Height
m
Period
s
Dir
27/11:30pm 21.2 SW 5 7 1013.2 - 0.0 - - 10 - - - -
27/11:00pm 22.0 SE 5 6 1013.0 - 0.0 - - 10 - - - -
27/10:30pm 22.4 SE 6 7 1013.2 - 0.0 - - 10 - - - -
27/10:00pm 22.7 SSE 6 7 1013.3 - 0.0 - - 10 - - - -
27/09:30pm 23.3 S 6 7 1013.3 - 0.0 - - 10 - - - -
27/09:00pm 22.2 SSE 4 5 1013.4 - 0.0 - - 10 - - - -
27/08:30pm 22.2 SSE 1 4 1013.2 - 0.0 - - 10 - - - -
27/08:00pm 23.5 CALM 0 0 1013.1 - 0.0 - - 10 - - - -
27/07:30pm 24.0 CALM 0 0 1012.8 - 0.0 - - 10 - - - -
27/07:00pm 24.7 CALM 0 0 1012.5 - 0.0 - - 10 - - - -
27/06:30pm 25.9 CALM 0 0 1012.0 - 0.0 - - 10 - - - -
27/06:00pm 26.5 NW 4 4 1011.8 - 0.0 - - 10 - - - -
27/05:30pm 27.5 NW 4 5 1011.4 - 0.0 - - - - - - -
27/05:00pm 29.4 WNW 5 7 1011.2 - 0.0 - - 10 - - - -
27/04:30pm 30.8 WNW 8 10 1011.0 - 0.0 - - 10 - - - -
27/04:00pm 31.8 NW 9 11 1010.6 - 0.0 - - 10 - - - -
27/03:30pm 32.4 NW 9 11 1010.6 - 0.0 - - 10 - - - -
27/03:00pm 32.8 NW 8 10 1010.5 - 0.0 - - 10 - - - -
27/02:30pm 32.7 NW 9 11 1010.7 - 0.0 - - 10 - - - -
27/02:00pm 33.1 WNW 7 11 1010.9 - 0.0 - - 10 - - - -
27/01:30pm 32.9 WNW 6 9 1011.1 - 0.0 - - 10 - - - -
27/01:00pm 33.4 WNW 5 8 1011.6 - 0.0 - - 10 - - - -
27/12:30pm 31.8 NW 7 10 1012.1 - 0.0 - - 10 - - - -
27/12:00pm 32.2 WNW 5 7 1012.6 - 0.0 - - 10 - - - -
27/11:30am 31.6 WNW 5 7 1013.0 - 0.0 - - 10 - - - -
27/11:00am 31.4 NNW 4 7 1013.3 - 0.0 - - - - - - -
27/10:30am 30.7 WNW 3 6 1013.7 - 0.0 - - 10 - - - -
27/10:00am 29.1 SSW 3 5 1014.0 - 0.0 - - 10 - - - -
27/09:30am 28.5 SW 3 5 1014.1 - 0.0 - - 10 - - - -
27/09:00am 26.9 SE 1 4 1014.3 - 0.0 - - 10 - - - -
27/08:30am 25.1 SSE 3 5 1014.4 - 0.0 - - 10 - - - -
27/08:00am 23.9 SE 3 4 1014.2 - 0.0 - - 10 - - - -
27/07:30am 22.3 S 5 6 1014.0 - 0.0 - - 10 - - - -
27/07:00am 21.1 SSE 5 7 1013.8 - 0.0 - - 10 - - - -
27/06:30am 19.4 SSE 4 5 1013.5 - 0.0 - - 10 - - - -
27/06:00am 19.4 SSE 4 5 1013.1 - 0.0 - - 10 - - - -
27/05:30am 19.0 SSE 4 5 1012.8 - 0.0 - - 10 - - - -
27/05:00am 18.6 SSE 3 5 1012.6 - 0.0 - - 10 - - - -
27/04:30am 19.2 SSE 3 4 1012.5 - 0.0 - - 10 - - - -
27/04:00am 18.1 CALM 0 3 1012.5 - 0.0 - - 10 - - - -
27/03:30am 18.8 W 4 4 1012.3 - 0.0 - - 10 - - - -
27/03:00am 19.0 CALM 0 0 1012.2 - 0.0 - - 10 - - - -
27/02:30am 19.4 CALM 0 1 1012.4 - 0.0 - - 10 - - - -
27/02:00am 18.7 ESE 2 4 1012.6 - 0.0 - - 10 - - - -
27/01:30am 19.7 CALM 0 0 1012.7 - 0.0 - - 10 - - - -
27/01:00am 20.0 CALM 0 0 1012.9 - 0.0 - - 10 - - - -
27/12:30am 20.4 SE 3 3 1012.9 - 0.0 - - 10 - - - -
27/12:00am 20.4 SSE 3 4 1012.9 - 0.0 - - 10 - - - -
 
Date/Time
WST
Temp
°C
Wind Pressure Rain since
9am
mm
Weather Cloud Vis
km
Sea
Height
m
Swell
Dir  Spd
kts
Gust
kts
hPa Trend Height
m
Period
s
Dir
26/11:30pm 21.4 S 5 5 1013.0 - 0.0 - - 10 - - - -
26/11:00pm 20.9 CALM 0 1 1013.1 - 0.0 - - 10 - - - -
26/10:30pm 21.6 CALM 0 0 1013.4 - 0.0 - - 10 - - - -
26/10:00pm 21.5 WNW 1 3 1013.6 - 0.0 - - 10 - - - -
26/09:30pm 22.2 S 1 4 1013.4 - 0.0 - - 10 - - - -
26/09:00pm 22.6 CALM 0 0 1013.3 - 0.0 - - 10 - - - -
26/08:30pm 23.8 CALM 0 0 1013.0 - 0.0 - - 10 - - - -
26/08:00pm 24.3 NNW 3 3 1012.8 - 0.0 - - 10 - - - -
26/07:30pm 24.6 CALM 0 3 1012.5 - 0.0 - - 10 - - - -
26/07:00pm 24.7 N 3 3 1012.4 - 0.0 - - 10 - - - -
26/06:30pm 25.8 NNW 3 4 1012.2 - 0.0 - - 10 - - - -
26/06:00pm 26.7 NNW 3 4 1011.9 - 0.0 - - 10 - - - -
26/05:30pm 27.2 NW 3 4 1011.7 - 0.0 - - 10 - - - -
26/05:00pm 28.8 NW 6 7 1011.2 - 0.0 - - 10 - - - -
26/04:30pm 30.0 NW 8 10 1010.8 - 0.0 - - 10 - - - -
26/04:00pm 31.3 NW 9 10 1010.6 - 0.0 - - 10 - - - -
26/03:30pm 32.1 WNW 8 10 1010.5 - 0.0 - - 10 - - - -
26/03:00pm 32.5 WNW 8 10 1010.6 - 0.0 - - 10 - - - -
26/02:30pm 32.8 WNW 9 11 1010.7 - 0.0 - - 10 - - - -
26/02:00pm 32.5 NW 9 13 1010.9 - 0.0 - - 10 - - - -
26/01:30pm 32.6 NW 10 12 1011.1 - 0.0 - - 10 - - - -
26/01:00pm 33.2 NW 9 11 1011.4 - 0.0 - - 10 - - - -
26/12:30pm 33.0 N 7 10 1011.8 - 0.0 - - 10 - - - -
26/12:00pm 33.9 N 7 10 1012.4 - 0.0 - - 10 - - - -
26/11:30am 33.2 N 7 11 1012.8 - 0.0 - - 10 - - - -
26/11:00am 32.3 NNE 7 11 1013.1 - 0.0 - - 10 - - - -
26/10:30am 31.6 NNE 6 8 1013.4 - 0.0 - - 10 - - - -
26/10:00am 30.6 NE 6 9 1013.7 - 0.0 - - 10 - - - -
26/09:30am 29.0 NNE 5 8 1014.0 - 0.0 - - 10 - - - -
26/09:00am 26.6 NNE 6 7 1014.1 - 0.0 - - 10 - - - -
26/08:30am 25.4 NNE 7 9 1014.0 - 0.0 - - 10 - - - -
26/08:00am 24.0 NE 6 8 1013.8 - 0.0 - - 10 - - - -
26/07:30am 21.9 ENE 3 5 1013.6 - 0.0 - - 10 - - - -
26/07:00am 20.1 ESE 1 4 1013.3 - 0.0 - - 10 - - - -
26/06:30am 17.7 ESE 3 4 1013.0 - 0.0 - - 10 - - - -
26/06:00am 18.1 SE 3 4 1012.7 - 0.0 - - 10 - - - -
26/05:30am 18.6 SE 4 5 1012.4 - 0.0 - - 10 - - - -
26/05:00am 18.1 SE 5 6 1012.1 - 0.0 - - 10 - - - -
26/04:30am 18.9 SE 2 4 1012.1 - 0.0 - - 10 - - - -
26/04:00am 18.6 SE 3 4 1012.1 - 0.0 - - 10 - - - -
26/03:30am 19.5 SE 1 4 1012.0 - 0.0 - - 10 - - - -
26/03:00am 19.6 S 7 7 1012.2 - 0.0 - - 10 - - - -
26/02:30am 19.6 S 4 5 1012.2 - 0.0 - - 10 - - - -
26/02:00am 19.7 S 5 6 1012.3 - 0.0 - - 10 - - - -
26/01:30am 20.4 SSE 1 3 1012.5 - 0.0 - - 10 - - - -
26/01:00am 20.6 SSE 5 5 1012.9 - 0.0 - - 10 - - - -
26/12:30am 21.0 SSE 4 5 1013.0 - 0.0 - - 10 - - - -

Other Formats:

Comma delimited format used in spreadsheet applications
http://www.bom.gov.au/fwo/IDW60701/IDW60701.95205.axf

JavaScript Object Notation format (JSON) in row-major order
http://www.bom.gov.au/fwo/IDW60701/IDW60701.95205.json